sensor_id;sensor_type;location;lat;lon;timestamp;P1;durP1;ratioP1;P2;durP2;ratioP2
62997;SDS011;55949;52.590;7.330;2023-05-10T00:00:00;10.80;;;8.13;;
62997;SDS011;55949;52.590;7.330;2023-05-10T00:01:00;14.45;;;9.43;;
62997;SDS011;55949;52.590;7.330;2023-05-10T00:02:02;14.40;;;9.30;;
62997;SDS011;55949;52.590;7.330;2023-05-10T00:03:03;13.50;;;8.82;;
62997;SDS011;55949;52.590;7.330;2023-05-10T00:04:04;12.75;;;8.98;;
62997;SDS011;55949;52.590;7.330;2023-05-10T00:05:05;13.10;;;8.55;;
62997;SDS011;55949;52.590;7.330;2023-05-10T00:06:06;14.70;;;9.23;;
62997;SDS011;55949;52.590;7.330;2023-05-10T00:07:07;12.57;;;8.57;;
62997;SDS011;55949;52.590;7.330;2023-05-10T00:08:08;14.73;;;9.85;;
62997;SDS011;55949;52.590;7.330;2023-05-10T00:09:09;11.43;;;8.65;;
62997;SDS011;55949;52.590;7.330;2023-05-10T00:10:10;14.20;;;9.85;;
62997;SDS011;55949;52.590;7.330;2023-05-10T00:11:11;13.05;;;8.98;;
62997;SDS011;55949;52.590;7.330;2023-05-10T00:12:11;14.10;;;9.32;;
62997;SDS011;55949;52.590;7.330;2023-05-10T00:13:13;12.35;;;8.65;;
62997;SDS011;55949;52.590;7.330;2023-05-10T00:14:13;14.15;;;9.30;;
62997;SDS011;55949;52.590;7.330;2023-05-10T00:15:14;12.82;;;9.10;;
62997;SDS011;55949;52.590;7.330;2023-05-10T00:16:15;14.05;;;10.05;;
62997;SDS011;55949;52.590;7.330;2023-05-10T00:17:15;14.32;;;9.60;;
62997;SDS011;55949;52.590;7.330;2023-05-10T00:18:16;14.15;;;9.80;;
62997;SDS011;55949;52.590;7.330;2023-05-10T00:19:17;13.60;;;9.32;;
62997;SDS011;55949;52.590;7.330;2023-05-10T00:20:17;14.30;;;9.70;;
62997;SDS011;55949;52.590;7.330;2023-05-10T00:21:18;14.02;;;9.90;;
62997;SDS011;55949;52.590;7.330;2023-05-10T00:22:19;13.07;;;9.52;;
62997;SDS011;55949;52.590;7.330;2023-05-10T00:23:20;13.65;;;8.85;;
62997;SDS011;55949;52.590;7.330;2023-05-10T00:24:21;14.73;;;9.82;;
62997;SDS011;55949;52.590;7.330;2023-05-10T00:25:22;15.05;;;10.63;;
62997;SDS011;55949;52.590;7.330;2023-05-10T00:26:22;15.80;;;10.10;;
62997;SDS011;55949;52.590;7.330;2023-05-10T00:27:23;14.95;;;9.70;;
62997;SDS011;55949;52.590;7.330;2023-05-10T00:28:24;15.40;;;9.65;;
62997;SDS011;55949;52.590;7.330;2023-05-10T00:29:25;14.07;;;10.00;;
62997;SDS011;55949;52.590;7.330;2023-05-10T00:30:25;16.35;;;10.57;;
62997;SDS011;55949;52.590;7.330;2023-05-10T00:31:26;16.52;;;10.55;;
62997;SDS011;55949;52.590;7.330;2023-05-10T00:32:27;14.60;;;9.88;;
62997;SDS011;55949;52.590;7.330;2023-05-10T00:33:28;16.98;;;10.30;;
62997;SDS011;55949;52.590;7.330;2023-05-10T00:34:28;16.27;;;10.43;;
62997;SDS011;55949;52.590;7.330;2023-05-10T00:35:30;15.23;;;10.00;;
62997;SDS011;55949;52.590;7.330;2023-05-10T00:36:31;14.13;;;10.15;;
62997;SDS011;55949;52.590;7.330;2023-05-10T00:37:32;15.38;;;10.45;;
62997;SDS011;55949;52.590;7.330;2023-05-10T00:38:33;17.10;;;10.98;;
62997;SDS011;55949;52.590;7.330;2023-05-10T00:39:34;15.95;;;10.45;;
62997;SDS011;55949;52.590;7.330;2023-05-10T00:40:35;16.17;;;9.55;;
62997;SDS011;55949;52.590;7.330;2023-05-10T00:41:37;17.90;;;11.27;;
62997;SDS011;55949;52.590;7.330;2023-05-10T00:42:38;16.63;;;10.93;;
62997;SDS011;55949;52.590;7.330;2023-05-10T00:43:38;16.40;;;11.15;;
62997;SDS011;55949;52.590;7.330;2023-05-10T00:44:39;19.23;;;11.55;;
62997;SDS011;55949;52.590;7.330;2023-05-10T00:45:40;20.23;;;11.65;;
62997;SDS011;55949;52.590;7.330;2023-05-10T00:46:41;16.50;;;10.90;;
62997;SDS011;55949;52.590;7.330;2023-05-10T00:47:42;15.60;;;10.32;;
62997;SDS011;55949;52.590;7.330;2023-05-10T00:48:43;18.70;;;11.25;;
62997;SDS011;55949;52.590;7.330;2023-05-10T00:49:45;17.73;;;10.63;;
62997;SDS011;55949;52.590;7.330;2023-05-10T00:50:46;17.08;;;11.13;;
62997;SDS011;55949;52.590;7.330;2023-05-10T00:51:47;17.30;;;10.98;;
62997;SDS011;55949;52.590;7.330;2023-05-10T00:52:48;17.13;;;10.98;;
62997;SDS011;55949;52.590;7.330;2023-05-10T00:53:49;16.40;;;10.43;;
62997;SDS011;55949;52.590;7.330;2023-05-10T00:54:51;16.50;;;10.20;;
62997;SDS011;55949;52.590;7.330;2023-05-10T00:55:52;17.25;;;11.13;;
62997;SDS011;55949;52.590;7.330;2023-05-10T00:56:53;18.35;;;11.00;;
62997;SDS011;55949;52.590;7.330;2023-05-10T00:57:54;17.88;;;10.30;;
62997;SDS011;55949;52.590;7.330;2023-05-10T00:58:55;14.32;;;9.80;;
62997;SDS011;55949;52.590;7.330;2023-05-10T00:59:57;17.58;;;10.88;;
62997;SDS011;55949;52.590;7.330;2023-05-10T01:00:58;12.57;;;8.30;;
62997;SDS011;55949;52.590;7.330;2023-05-10T01:02:00;11.55;;;6.95;;
62997;SDS011;55949;52.590;7.330;2023-05-10T01:03:01;11.23;;;7.88;;
62997;SDS011;55949;52.590;7.330;2023-05-10T01:04:03;9.73;;;6.43;;
62997;SDS011;55949;52.590;7.330;2023-05-10T01:05:04;10.23;;;7.45;;
62997;SDS011;55949;52.590;7.330;2023-05-10T01:06:05;9.95;;;9.02;;
62997;SDS011;55949;52.590;7.330;2023-05-10T01:07:06;8.50;;;7.68;;
62997;SDS011;55949;52.590;7.330;2023-05-10T01:08:07;6.65;;;4.78;;
62997;SDS011;55949;52.590;7.330;2023-05-10T01:09:08;5.20;;;3.80;;
62997;SDS011;55949;52.590;7.330;2023-05-10T01:10:11;6.40;;;3.97;;
62997;SDS011;55949;52.590;7.330;2023-05-10T01:11:12;7.05;;;4.00;;
62997;SDS011;55949;52.590;7.330;2023-05-10T01:12:13;5.30;;;3.95;;
62997;SDS011;55949;52.590;7.330;2023-05-10T01:13:16;5.43;;;4.30;;
62997;SDS011;55949;52.590;7.330;2023-05-10T01:14:25;9.40;;;8.25;;
62997;SDS011;55949;52.590;7.330;2023-05-10T01:15:27;6.95;;;4.93;;
62997;SDS011;55949;52.590;7.330;2023-05-10T01:16:29;5.35;;;4.60;;
62997;SDS011;55949;52.590;7.330;2023-05-10T01:17:34;7.78;;;4.78;;
62997;SDS011;55949;52.590;7.330;2023-05-10T01:18:38;6.20;;;4.38;;
62997;SDS011;55949;52.590;7.330;2023-05-10T01:19:41;6.22;;;4.68;;
62997;SDS011;55949;52.590;7.330;2023-05-10T01:20:43;6.20;;;4.45;;
62997;SDS011;55949;52.590;7.330;2023-05-10T01:21:48;8.65;;;4.97;;
62997;SDS011;55949;52.590;7.330;2023-05-10T01:28:14;8.05;;;5.20;;
62997;SDS011;55949;52.590;7.330;2023-05-10T01:33:42;8.30;;;5.50;;
62997;SDS011;55949;52.590;7.330;2023-05-10T01:35:03;8.50;;;5.60;;
62997;SDS011;55949;52.590;7.330;2023-05-10T01:36:31;8.10;;;5.75;;
62997;SDS011;55949;52.590;7.330;2023-05-10T01:37:45;9.07;;;6.00;;
62997;SDS011;55949;52.590;7.330;2023-05-10T01:39:26;8.30;;;6.05;;
62997;SDS011;55949;52.590;7.330;2023-05-10T01:40:42;10.18;;;6.95;;
62997;SDS011;55949;52.590;7.330;2023-05-10T01:43:14;9.13;;;6.93;;
62997;SDS011;55949;52.590;7.330;2023-05-10T01:45:33;13.15;;;7.93;;
62997;SDS011;55949;52.590;7.330;2023-05-10T01:46:40;12.93;;;8.95;;
62997;SDS011;55949;52.590;7.330;2023-05-10T01:47:44;11.55;;;8.27;;
62997;SDS011;55949;52.590;7.330;2023-05-10T01:48:54;9.98;;;7.68;;
62997;SDS011;55949;52.590;7.330;2023-05-10T01:49:57;11.52;;;8.75;;
62997;SDS011;55949;52.590;7.330;2023-05-10T01:51:01;11.57;;;8.35;;
62997;SDS011;55949;52.590;7.330;2023-05-10T01:52:06;12.05;;;7.93;;
62997;SDS011;55949;52.590;7.330;2023-05-10T01:53:12;11.85;;;8.57;;
62997;SDS011;55949;52.590;7.330;2023-05-10T01:54:17;12.18;;;8.82;;
62997;SDS011;55949;52.590;7.330;2023-05-10T01:55:20;12.98;;;8.55;;
62997;SDS011;55949;52.590;7.330;2023-05-10T01:56:24;14.48;;;9.05;;
62997;SDS011;55949;52.590;7.330;2023-05-10T01:57:27;13.70;;;9.15;;
62997;SDS011;55949;52.590;7.330;2023-05-10T01:58:33;18.65;;;10.60;;
62997;SDS011;55949;52.590;7.330;2023-05-10T01:59:36;16.10;;;10.18;;
62997;SDS011;55949;52.590;7.330;2023-05-10T02:00:44;16.13;;;11.25;;
62997;SDS011;55949;52.590;7.330;2023-05-10T02:01:47;16.63;;;11.15;;
62997;SDS011;55949;52.590;7.330;2023-05-10T02:02:49;16.52;;;11.50;;
62997;SDS011;55949;52.590;7.330;2023-05-10T02:03:55;16.92;;;12.38;;
62997;SDS011;55949;52.590;7.330;2023-05-10T02:04:57;15.75;;;10.90;;
62997;SDS011;55949;52.590;7.330;2023-05-10T02:05:59;19.65;;;12.13;;
62997;SDS011;55949;52.590;7.330;2023-05-10T02:07:00;17.20;;;11.88;;
62997;SDS011;55949;52.590;7.330;2023-05-10T02:08:01;18.23;;;10.90;;
62997;SDS011;55949;52.590;7.330;2023-05-10T02:09:06;17.52;;;10.85;;
62997;SDS011;55949;52.590;7.330;2023-05-10T02:10:08;18.60;;;12.35;;
62997;SDS011;55949;52.590;7.330;2023-05-10T02:11:10;18.70;;;12.60;;
62997;SDS011;55949;52.590;7.330;2023-05-10T02:12:13;19.23;;;13.25;;
62997;SDS011;55949;52.590;7.330;2023-05-10T02:13:16;20.90;;;13.60;;
62997;SDS011;55949;52.590;7.330;2023-05-10T02:14:18;19.45;;;12.75;;
62997;SDS011;55949;52.590;7.330;2023-05-10T02:15:22;20.15;;;14.55;;
62997;SDS011;55949;52.590;7.330;2023-05-10T02:16:25;20.65;;;13.35;;
62997;SDS011;55949;52.590;7.330;2023-05-10T02:17:27;19.38;;;12.60;;
62997;SDS011;55949;52.590;7.330;2023-05-10T02:18:30;21.25;;;13.00;;
62997;SDS011;55949;52.590;7.330;2023-05-10T02:19:33;18.27;;;11.25;;
62997;SDS011;55949;52.590;7.330;2023-05-10T02:20:36;21.13;;;14.20;;
62997;SDS011;55949;52.590;7.330;2023-05-10T02:21:39;19.55;;;12.98;;
62997;SDS011;55949;52.590;7.330;2023-05-10T02:22:41;21.25;;;12.75;;
62997;SDS011;55949;52.590;7.330;2023-05-10T02:23:43;20.60;;;13.85;;
62997;SDS011;55949;52.590;7.330;2023-05-10T02:24:46;21.23;;;13.73;;
62997;SDS011;55949;52.590;7.330;2023-05-10T02:25:48;20.48;;;14.02;;
62997;SDS011;55949;52.590;7.330;2023-05-10T02:26:51;19.70;;;13.07;;
62997;SDS011;55949;52.590;7.330;2023-05-10T02:27:56;22.08;;;14.13;;
62997;SDS011;55949;52.590;7.330;2023-05-10T02:28:59;20.02;;;13.35;;
62997;SDS011;55949;52.590;7.330;2023-05-10T02:30:03;21.35;;;13.50;;
62997;SDS011;55949;52.590;7.330;2023-05-10T02:31:06;22.15;;;14.25;;
62997;SDS011;55949;52.590;7.330;2023-05-10T02:32:09;22.13;;;13.15;;
62997;SDS011;55949;52.590;7.330;2023-05-10T02:33:11;23.00;;;13.65;;
62997;SDS011;55949;52.590;7.330;2023-05-10T02:34:12;23.08;;;14.90;;
62997;SDS011;55949;52.590;7.330;2023-05-10T02:35:13;23.25;;;13.43;;
62997;SDS011;55949;52.590;7.330;2023-05-10T02:36:15;20.85;;;14.18;;
62997;SDS011;55949;52.590;7.330;2023-05-10T02:37:18;25.10;;;15.15;;
62997;SDS011;55949;52.590;7.330;2023-05-10T02:38:20;24.33;;;14.02;;
62997;SDS011;55949;52.590;7.330;2023-05-10T02:39:23;20.73;;;14.00;;
62997;SDS011;55949;52.590;7.330;2023-05-10T02:40:28;20.58;;;13.32;;
62997;SDS011;55949;52.590;7.330;2023-05-10T02:41:30;20.65;;;13.80;;
62997;SDS011;55949;52.590;7.330;2023-05-10T02:42:33;22.33;;;13.95;;
62997;SDS011;55949;52.590;7.330;2023-05-10T02:43:36;21.10;;;12.95;;
62997;SDS011;55949;52.590;7.330;2023-05-10T02:44:40;22.15;;;13.82;;
62997;SDS011;55949;52.590;7.330;2023-05-10T02:45:41;22.90;;;13.57;;
62997;SDS011;55949;52.590;7.330;2023-05-10T02:46:46;23.38;;;14.38;;
62997;SDS011;55949;52.590;7.330;2023-05-10T02:47:47;22.48;;;13.43;;
62997;SDS011;55949;52.590;7.330;2023-05-10T02:48:48;20.60;;;10.40;;
62997;SDS011;55949;52.590;7.330;2023-05-10T02:49:49;22.13;;;13.90;;
62997;SDS011;55949;52.590;7.330;2023-05-10T02:50:50;22.42;;;13.52;;
62997;SDS011;55949;52.590;7.330;2023-05-10T02:51:55;20.77;;;13.95;;
62997;SDS011;55949;52.590;7.330;2023-05-10T02:53:00;22.90;;;13.90;;
62997;SDS011;55949;52.590;7.330;2023-05-10T02:54:07;23.52;;;15.38;;
62997;SDS011;55949;52.590;7.330;2023-05-10T02:55:16;23.58;;;14.38;;
62997;SDS011;55949;52.590;7.330;2023-05-10T02:56:25;23.38;;;13.82;;
62997;SDS011;55949;52.590;7.330;2023-05-10T02:57:32;23.83;;;14.15;;
62997;SDS011;55949;52.590;7.330;2023-05-10T02:58:34;25.02;;;13.48;;
62997;SDS011;55949;52.590;7.330;2023-05-10T02:59:35;23.63;;;14.05;;
62997;SDS011;55949;52.590;7.330;2023-05-10T03:00:36;21.02;;;14.52;;
62997;SDS011;55949;52.590;7.330;2023-05-10T03:01:37;25.58;;;14.68;;
62997;SDS011;55949;52.590;7.330;2023-05-10T03:02:38;24.17;;;14.35;;
62997;SDS011;55949;52.590;7.330;2023-05-10T03:03:39;23.75;;;14.43;;
62997;SDS011;55949;52.590;7.330;2023-05-10T03:04:39;24.75;;;14.52;;
62997;SDS011;55949;52.590;7.330;2023-05-10T03:05:40;23.05;;;14.20;;
62997;SDS011;55949;52.590;7.330;2023-05-10T03:06:41;24.02;;;14.02;;
62997;SDS011;55949;52.590;7.330;2023-05-10T03:07:42;21.98;;;13.75;;
62997;SDS011;55949;52.590;7.330;2023-05-10T03:08:43;27.70;;;15.52;;
62997;SDS011;55949;52.590;7.330;2023-05-10T03:09:45;23.15;;;14.07;;
62997;SDS011;55949;52.590;7.330;2023-05-10T03:13:16;21.88;;;12.90;;
62997;SDS011;55949;52.590;7.330;2023-05-10T03:15:22;24.90;;;15.02;;
62997;SDS011;55949;52.590;7.330;2023-05-10T03:16:47;22.65;;;12.32;;
62997;SDS011;55949;52.590;7.330;2023-05-10T03:18:23;21.60;;;12.95;;
62997;SDS011;55949;52.590;7.330;2023-05-10T03:19:57;20.70;;;12.98;;
62997;SDS011;55949;52.590;7.330;2023-05-10T03:21:03;21.83;;;12.80;;
62997;SDS011;55949;52.590;7.330;2023-05-10T03:22:08;22.00;;;13.73;;
62997;SDS011;55949;52.590;7.330;2023-05-10T03:23:27;21.65;;;13.60;;
62997;SDS011;55949;52.590;7.330;2023-05-10T03:24:35;20.70;;;13.20;;
62997;SDS011;55949;52.590;7.330;2023-05-10T03:25:39;19.90;;;13.13;;
62997;SDS011;55949;52.590;7.330;2023-05-10T03:26:41;25.80;;;14.80;;
62997;SDS011;55949;52.590;7.330;2023-05-10T03:27:45;22.42;;;14.20;;
62997;SDS011;55949;52.590;7.330;2023-05-10T03:28:46;22.70;;;13.50;;
62997;SDS011;55949;52.590;7.330;2023-05-10T03:29:48;22.60;;;14.07;;
62997;SDS011;55949;52.590;7.330;2023-05-10T03:30:51;20.50;;;13.30;;
62997;SDS011;55949;52.590;7.330;2023-05-10T03:31:53;21.63;;;13.40;;
62997;SDS011;55949;52.590;7.330;2023-05-10T03:32:53;23.25;;;13.82;;
62997;SDS011;55949;52.590;7.330;2023-05-10T03:33:54;24.42;;;13.80;;
62997;SDS011;55949;52.590;7.330;2023-05-10T03:34:55;21.95;;;13.73;;
62997;SDS011;55949;52.590;7.330;2023-05-10T03:35:56;20.67;;;12.55;;
62997;SDS011;55949;52.590;7.330;2023-05-10T03:36:57;20.48;;;12.20;;
62997;SDS011;55949;52.590;7.330;2023-05-10T03:37:58;21.85;;;13.32;;
62997;SDS011;55949;52.590;7.330;2023-05-10T03:38:58;24.38;;;13.73;;
62997;SDS011;55949;52.590;7.330;2023-05-10T03:39:59;22.15;;;13.02;;
62997;SDS011;55949;52.590;7.330;2023-05-10T03:41:00;21.48;;;14.10;;
62997;SDS011;55949;52.590;7.330;2023-05-10T03:42:01;20.48;;;13.40;;
62997;SDS011;55949;52.590;7.330;2023-05-10T03:43:02;22.23;;;12.43;;
62997;SDS011;55949;52.590;7.330;2023-05-10T03:44:03;22.05;;;13.45;;
62997;SDS011;55949;52.590;7.330;2023-05-10T03:45:04;22.35;;;13.02;;
62997;SDS011;55949;52.590;7.330;2023-05-10T03:46:05;19.98;;;12.90;;
62997;SDS011;55949;52.590;7.330;2023-05-10T03:47:06;19.00;;;12.02;;
62997;SDS011;55949;52.590;7.330;2023-05-10T03:48:06;21.65;;;13.25;;
62997;SDS011;55949;52.590;7.330;2023-05-10T03:49:07;21.13;;;12.57;;
62997;SDS011;55949;52.590;7.330;2023-05-10T03:50:08;23.23;;;14.63;;
62997;SDS011;55949;52.590;7.330;2023-05-10T03:51:10;25.20;;;14.57;;
62997;SDS011;55949;52.590;7.330;2023-05-10T03:52:10;21.63;;;13.15;;
62997;SDS011;55949;52.590;7.330;2023-05-10T03:53:11;23.75;;;13.15;;
62997;SDS011;55949;52.590;7.330;2023-05-10T03:54:12;22.65;;;12.90;;
62997;SDS011;55949;52.590;7.330;2023-05-10T03:55:13;22.27;;;13.80;;
62997;SDS011;55949;52.590;7.330;2023-05-10T03:56:14;23.63;;;14.18;;
62997;SDS011;55949;52.590;7.330;2023-05-10T03:57:16;20.92;;;12.70;;
62997;SDS011;55949;52.590;7.330;2023-05-10T03:58:17;20.23;;;13.07;;
62997;SDS011;55949;52.590;7.330;2023-05-10T03:59:18;24.92;;;14.65;;
62997;SDS011;55949;52.590;7.330;2023-05-10T04:00:19;19.38;;;12.25;;
62997;SDS011;55949;52.590;7.330;2023-05-10T04:01:20;23.60;;;12.63;;
62997;SDS011;55949;52.590;7.330;2023-05-10T04:02:24;24.40;;;13.80;;
62997;SDS011;55949;52.590;7.330;2023-05-10T04:03:24;23.98;;;13.15;;
62997;SDS011;55949;52.590;7.330;2023-05-10T04:04:26;19.58;;;12.27;;
62997;SDS011;55949;52.590;7.330;2023-05-10T04:05:27;19.83;;;13.02;;
62997;SDS011;55949;52.590;7.330;2023-05-10T04:06:27;24.52;;;14.73;;
62997;SDS011;55949;52.590;7.330;2023-05-10T04:07:28;23.85;;;13.90;;
62997;SDS011;55949;52.590;7.330;2023-05-10T04:08:29;18.52;;;11.93;;
62997;SDS011;55949;52.590;7.330;2023-05-10T04:09:30;20.02;;;12.55;;
62997;SDS011;55949;52.590;7.330;2023-05-10T04:10:31;19.92;;;13.68;;
62997;SDS011;55949;52.590;7.330;2023-05-10T04:11:32;21.42;;;12.43;;
62997;SDS011;55949;52.590;7.330;2023-05-10T04:12:32;21.60;;;12.93;;
62997;SDS011;55949;52.590;7.330;2023-05-10T04:13:33;21.40;;;12.15;;
62997;SDS011;55949;52.590;7.330;2023-05-10T04:14:34;18.48;;;11.98;;
62997;SDS011;55949;52.590;7.330;2023-05-10T04:15:35;23.58;;;13.52;;
62997;SDS011;55949;52.590;7.330;2023-05-10T04:16:36;18.65;;;11.60;;
62997;SDS011;55949;52.590;7.330;2023-05-10T04:17:36;21.50;;;12.95;;
62997;SDS011;55949;52.590;7.330;2023-05-10T04:18:37;21.55;;;12.70;;
62997;SDS011;55949;52.590;7.330;2023-05-10T04:19:39;22.75;;;11.70;;
62997;SDS011;55949;52.590;7.330;2023-05-10T04:20:40;24.10;;;12.77;;
62997;SDS011;55949;52.590;7.330;2023-05-10T04:21:41;22.30;;;12.32;;
62997;SDS011;55949;52.590;7.330;2023-05-10T04:22:41;21.95;;;12.52;;
62997;SDS011;55949;52.590;7.330;2023-05-10T04:23:42;25.17;;;13.45;;
62997;SDS011;55949;52.590;7.330;2023-05-10T04:24:43;21.92;;;13.00;;
62997;SDS011;55949;52.590;7.330;2023-05-10T04:25:43;20.58;;;11.65;;
62997;SDS011;55949;52.590;7.330;2023-05-10T04:26:44;20.33;;;12.75;;
62997;SDS011;55949;52.590;7.330;2023-05-10T04:27:45;22.08;;;12.70;;
62997;SDS011;55949;52.590;7.330;2023-05-10T04:28:46;17.90;;;10.98;;
62997;SDS011;55949;52.590;7.330;2023-05-10T04:29:46;19.95;;;11.93;;
62997;SDS011;55949;52.590;7.330;2023-05-10T04:30:47;23.05;;;13.40;;
62997;SDS011;55949;52.590;7.330;2023-05-10T04:31:48;19.27;;;11.52;;
62997;SDS011;55949;52.590;7.330;2023-05-10T04:32:48;23.98;;;11.95;;
62997;SDS011;55949;52.590;7.330;2023-05-10T04:33:49;21.55;;;12.40;;
62997;SDS011;55949;52.590;7.330;2023-05-10T04:34:50;18.70;;;11.27;;
62997;SDS011;55949;52.590;7.330;2023-05-10T04:35:52;22.00;;;11.65;;
62997;SDS011;55949;52.590;7.330;2023-05-10T04:36:52;20.67;;;12.52;;
62997;SDS011;55949;52.590;7.330;2023-05-10T04:37:53;18.33;;;10.77;;
62997;SDS011;55949;52.590;7.330;2023-05-10T04:38:54;22.08;;;12.63;;
62997;SDS011;55949;52.590;7.330;2023-05-10T04:39:55;22.30;;;13.32;;
62997;SDS011;55949;52.590;7.330;2023-05-10T04:41:05;22.95;;;12.18;;
62997;SDS011;55949;52.590;7.330;2023-05-10T04:42:07;22.13;;;12.93;;
62997;SDS011;55949;52.590;7.330;2023-05-10T04:43:08;22.42;;;12.63;;
62997;SDS011;55949;52.590;7.330;2023-05-10T04:44:08;23.02;;;13.95;;
62997;SDS011;55949;52.590;7.330;2023-05-10T04:45:09;20.42;;;12.25;;
62997;SDS011;55949;52.590;7.330;2023-05-10T04:46:10;21.42;;;12.30;;
62997;SDS011;55949;52.590;7.330;2023-05-10T04:47:11;20.05;;;12.02;;
62997;SDS011;55949;52.590;7.330;2023-05-10T04:48:13;20.70;;;11.07;;
62997;SDS011;55949;52.590;7.330;2023-05-10T04:49:13;18.25;;;11.02;;
62997;SDS011;55949;52.590;7.330;2023-05-10T04:50:14;20.63;;;12.63;;
62997;SDS011;55949;52.590;7.330;2023-05-10T04:51:15;21.52;;;12.32;;
62997;SDS011;55949;52.590;7.330;2023-05-10T04:52:16;23.55;;;12.52;;
62997;SDS011;55949;52.590;7.330;2023-05-10T04:53:17;21.88;;;12.40;;
62997;SDS011;55949;52.590;7.330;2023-05-10T04:54:18;21.73;;;12.25;;
62997;SDS011;55949;52.590;7.330;2023-05-10T04:55:19;20.88;;;11.75;;
62997;SDS011;55949;52.590;7.330;2023-05-10T04:56:20;22.98;;;14.15;;
62997;SDS011;55949;52.590;7.330;2023-05-10T04:57:21;22.13;;;12.95;;
62997;SDS011;55949;52.590;7.330;2023-05-10T04:58:22;22.42;;;13.23;;
62997;SDS011;55949;52.590;7.330;2023-05-10T04:59:23;21.85;;;12.18;;
62997;SDS011;55949;52.590;7.330;2023-05-10T05:00:24;19.42;;;11.80;;
62997;SDS011;55949;52.590;7.330;2023-05-10T05:01:24;22.95;;;12.80;;
62997;SDS011;55949;52.590;7.330;2023-05-10T05:02:25;19.55;;;12.30;;
62997;SDS011;55949;52.590;7.330;2023-05-10T05:03:26;22.88;;;13.10;;
62997;SDS011;55949;52.590;7.330;2023-05-10T05:04:26;21.30;;;12.38;;
62997;SDS011;55949;52.590;7.330;2023-05-10T05:05:27;20.08;;;11.95;;
62997;SDS011;55949;52.590;7.330;2023-05-10T05:06:28;22.73;;;12.90;;
62997;SDS011;55949;52.590;7.330;2023-05-10T05:07:28;19.63;;;11.82;;
62997;SDS011;55949;52.590;7.330;2023-05-10T05:08:30;20.70;;;11.88;;
62997;SDS011;55949;52.590;7.330;2023-05-10T05:09:31;19.98;;;11.10;;
62997;SDS011;55949;52.590;7.330;2023-05-10T05:10:32;19.92;;;12.85;;
62997;SDS011;55949;52.590;7.330;2023-05-10T05:11:33;20.00;;;11.73;;
62997;SDS011;55949;52.590;7.330;2023-05-10T05:12:34;22.33;;;11.50;;
62997;SDS011;55949;52.590;7.330;2023-05-10T05:13:35;20.48;;;12.45;;
62997;SDS011;55949;52.590;7.330;2023-05-10T05:14:35;22.48;;;12.18;;
62997;SDS011;55949;52.590;7.330;2023-05-10T05:15:36;23.58;;;12.63;;
62997;SDS011;55949;52.590;7.330;2023-05-10T05:16:37;21.45;;;12.05;;
62997;SDS011;55949;52.590;7.330;2023-05-10T05:17:38;19.88;;;11.65;;
62997;SDS011;55949;52.590;7.330;2023-05-10T05:18:38;19.10;;;10.27;;
62997;SDS011;55949;52.590;7.330;2023-05-10T05:19:39;21.35;;;11.73;;
62997;SDS011;55949;52.590;7.330;2023-05-10T05:20:40;21.02;;;11.32;;
62997;SDS011;55949;52.590;7.330;2023-05-10T05:21:41;19.67;;;10.18;;
62997;SDS011;55949;52.590;7.330;2023-05-10T05:22:41;17.67;;;11.00;;
62997;SDS011;55949;52.590;7.330;2023-05-10T05:23:42;16.52;;;10.38;;
62997;SDS011;55949;52.590;7.330;2023-05-10T05:24:43;19.40;;;11.77;;
62997;SDS011;55949;52.590;7.330;2023-05-10T05:25:45;16.98;;;9.63;;
62997;SDS011;55949;52.590;7.330;2023-05-10T05:26:45;18.08;;;8.93;;
62997;SDS011;55949;52.590;7.330;2023-05-10T05:27:47;18.38;;;10.90;;
62997;SDS011;55949;52.590;7.330;2023-05-10T05:28:47;17.38;;;9.52;;
62997;SDS011;55949;52.590;7.330;2023-05-10T05:29:50;20.77;;;10.88;;
62997;SDS011;55949;52.590;7.330;2023-05-10T05:30:52;17.50;;;9.75;;
62997;SDS011;55949;52.590;7.330;2023-05-10T05:31:53;19.98;;;10.40;;
62997;SDS011;55949;52.590;7.330;2023-05-10T05:32:53;17.13;;;10.00;;
62997;SDS011;55949;52.590;7.330;2023-05-10T05:33:54;17.35;;;9.90;;
62997;SDS011;55949;52.590;7.330;2023-05-10T05:34:55;16.83;;;11.15;;
62997;SDS011;55949;52.590;7.330;2023-05-10T05:35:56;17.52;;;9.48;;
62997;SDS011;55949;52.590;7.330;2023-05-10T05:36:57;20.48;;;10.73;;
62997;SDS011;55949;52.590;7.330;2023-05-10T05:37:57;16.85;;;9.40;;
62997;SDS011;55949;52.590;7.330;2023-05-10T05:38:58;17.13;;;9.52;;
62997;SDS011;55949;52.590;7.330;2023-05-10T05:39:59;16.08;;;9.75;;
62997;SDS011;55949;52.590;7.330;2023-05-10T05:41:01;15.18;;;8.85;;
62997;SDS011;55949;52.590;7.330;2023-05-10T05:42:03;15.52;;;9.38;;
62997;SDS011;55949;52.590;7.330;2023-05-10T05:43:03;12.07;;;7.68;;
62997;SDS011;55949;52.590;7.330;2023-05-10T05:44:04;15.18;;;9.55;;
62997;SDS011;55949;52.590;7.330;2023-05-10T05:45:08;13.80;;;8.52;;
62997;SDS011;55949;52.590;7.330;2023-05-10T05:46:12;14.90;;;8.18;;
62997;SDS011;55949;52.590;7.330;2023-05-10T05:47:13;14.48;;;8.25;;
62997;SDS011;55949;52.590;7.330;2023-05-10T05:48:14;17.25;;;9.75;;
62997;SDS011;55949;52.590;7.330;2023-05-10T05:49:15;16.80;;;8.65;;
62997;SDS011;55949;52.590;7.330;2023-05-10T05:50:15;15.68;;;8.43;;
62997;SDS011;55949;52.590;7.330;2023-05-10T05:51:16;16.75;;;9.48;;
62997;SDS011;55949;52.590;7.330;2023-05-10T05:52:17;18.08;;;9.63;;
62997;SDS011;55949;52.590;7.330;2023-05-10T05:53:19;15.43;;;9.18;;
62997;SDS011;55949;52.590;7.330;2023-05-10T05:54:20;13.05;;;9.13;;
62997;SDS011;55949;52.590;7.330;2023-05-10T05:55:21;15.75;;;8.77;;
62997;SDS011;55949;52.590;7.330;2023-05-10T05:56:22;14.57;;;9.88;;
62997;SDS011;55949;52.590;7.330;2023-05-10T05:57:25;17.65;;;10.68;;
62997;SDS011;55949;52.590;7.330;2023-05-10T05:58:26;16.05;;;8.68;;
62997;SDS011;55949;52.590;7.330;2023-05-10T05:59:28;18.70;;;10.05;;
62997;SDS011;55949;52.590;7.330;2023-05-10T06:00:30;16.38;;;10.02;;
62997;SDS011;55949;52.590;7.330;2023-05-10T06:01:31;15.25;;;9.98;;
62997;SDS011;55949;52.590;7.330;2023-05-10T06:02:32;16.38;;;10.20;;
62997;SDS011;55949;52.590;7.330;2023-05-10T06:03:33;18.95;;;10.32;;
62997;SDS011;55949;52.590;7.330;2023-05-10T06:04:34;22.17;;;11.85;;
62997;SDS011;55949;52.590;7.330;2023-05-10T06:05:34;19.17;;;11.40;;
62997;SDS011;55949;52.590;7.330;2023-05-10T06:06:35;17.13;;;10.52;;
62997;SDS011;55949;52.590;7.330;2023-05-10T06:07:36;16.90;;;10.75;;
62997;SDS011;55949;52.590;7.330;2023-05-10T06:08:37;19.83;;;11.07;;
62997;SDS011;55949;52.590;7.330;2023-05-10T06:09:37;20.35;;;11.77;;
62997;SDS011;55949;52.590;7.330;2023-05-10T06:10:38;21.20;;;12.23;;
62997;SDS011;55949;52.590;7.330;2023-05-10T06:11:39;18.83;;;12.10;;
62997;SDS011;55949;52.590;7.330;2023-05-10T06:12:40;17.88;;;11.30;;
62997;SDS011;55949;52.590;7.330;2023-05-10T06:13:42;21.42;;;12.05;;
62997;SDS011;55949;52.590;7.330;2023-05-10T06:14:43;20.63;;;11.90;;
62997;SDS011;55949;52.590;7.330;2023-05-10T06:15:45;20.83;;;12.32;;
62997;SDS011;55949;52.590;7.330;2023-05-10T06:16:46;19.85;;;12.15;;
62997;SDS011;55949;52.590;7.330;2023-05-10T06:17:47;24.83;;;12.20;;
62997;SDS011;55949;52.590;7.330;2023-05-10T06:18:49;21.73;;;11.98;;
62997;SDS011;55949;52.590;7.330;2023-05-10T06:19:50;20.52;;;11.75;;
62997;SDS011;55949;52.590;7.330;2023-05-10T06:20:51;18.27;;;11.05;;
62997;SDS011;55949;52.590;7.330;2023-05-10T06:21:52;16.55;;;11.20;;